KIAD

Washington Dulles International Airport

Washington, Virginia, USA
KIAD 190115Z 1901/2006 VRB03KT 3SM BR SCT002 OVC050 FM191700 10006KT P6SM OVC008 FM191900 10007KT 1 1/2SM -SNRAPL OVC003 FM192100 11008KT 1/2SM -FZRA OVC003 FM200000 11008KT 1SM -FZRA OVC008 FM200300 11005KT 1SM -RA OVC008
Issued Valid From Valid To
Jan-19 @ 01:15 UTC
(an hour ago)
Jan-19 @ 01:00 UTC
(an hour ago)
Jan-20 @ 06:00 UTC
(-1 days ago)
Jan-19 @ 01:00 to Jan-19 @ 17:00
KIAD 190115Z 1901/2006 VRB03KT 3SM BR SCT002 OVC050
Wind Visibility Clouds Conditions
Variable at 3 knots 3 miles
  • Scattered at 200' AGL
  • Overcast at 5,000' AGL
  • Mist
From Jan-19 @ 17:00 to Jan-19 @ 19:00
FM191700 10006KT P6SM OVC008
Wind Visibility Clouds
100° at 6 knots Greater than 6 miles
  • Overcast at 800' AGL
From Jan-19 @ 19:00 to Jan-19 @ 21:00
FM191900 10007KT 1 1/2SM -SNRAPL OVC003
Wind Visibility Clouds Conditions
100° at 7 knots 1 1/2 miles
  • Overcast at 300' AGL
  • Light Snow
  • Light Rain
From Jan-19 @ 21:00 to Jan-20 @ 00:00
FM192100 11008KT 1/2SM -FZRA OVC003
Wind Visibility Clouds Conditions
110° at 8 knots 1/2 miles
  • Overcast at 300' AGL
  • Light Freezing
  • Light Rain
From Jan-20 @ 00:00 to Jan-20 @ 03:00
FM200000 11008KT 1SM -FZRA OVC008
Wind Visibility Clouds Conditions
110° at 8 knots 1 miles
  • Overcast at 800' AGL
  • Light Freezing
  • Light Rain
From Jan-20 @ 03:00 to Jan-20 @ 06:00
FM200300 11005KT 1SM -RA OVC008
Wind Visibility Clouds Conditions
110° at 5 knots 1 miles
  • Overcast at 800' AGL
  • Light Rain
KIAD 190115Z 1901/2006 VRB03KT 3SM BR SCT002 OVC050 FM191700 10006KT P6SM OVC008 FM191900 10007KT 1 1/2SM -SNRAPL OVC003 FM192100 11008KT 1/2SM -FZRA OVC003 FM200000 11008KT 1SM -FZRA OVC008 FM200300 11005KT 1SM -RA OVC008
Issued Jan-19 @ 01:15 UTC
(an hour ago)
Valid From Jan-19 @ 01:00 UTC
(an hour ago)
Valid To Jan-20 @ 06:00 UTC
(-1 days ago)
Jan-19 @ 01:00 - Jan-19 @ 17:00
Wind Visibility
Variable at 3 knots 3 miles
Clouds
  • Scattered at 200' AGL
  • Overcast at 5,000' AGL
Conditions
  • Mist
From Jan-19 @ 17:00 - Jan-19 @ 19:00
Wind Visibility
100° at 6 knots Greater than 6 miles
Clouds
  • Overcast at 800' AGL
From Jan-19 @ 19:00 - Jan-19 @ 21:00
Wind Visibility
100° at 7 knots 1 1/2 miles
Clouds
  • Overcast at 300' AGL
Conditions
  • Light Snow
  • Light Rain
From Jan-19 @ 21:00 - Jan-20 @ 00:00
Wind Visibility
110° at 8 knots 1/2 miles
Clouds
  • Overcast at 300' AGL
Conditions
  • Light Freezing
  • Light Rain
From Jan-20 @ 00:00 - Jan-20 @ 03:00
Wind Visibility
110° at 8 knots 1 miles
Clouds
  • Overcast at 800' AGL
Conditions
  • Light Freezing
  • Light Rain
From Jan-20 @ 03:00 - Jan-20 @ 06:00
Wind Visibility
110° at 5 knots 1 miles
Clouds
  • Overcast at 800' AGL
Conditions
  • Light Rain